sensor_id;sensor_type;location;lat;lon;timestamp;P1;durP1;ratioP1;P2;durP2;ratioP2
35909;SDS011;22004;49.120;-0.200;2023-10-19T00:45:31;30.73;;;4.38;;
35909;SDS011;22004;49.120;-0.200;2023-10-19T00:47:58;20.80;;;3.10;;
35909;SDS011;22004;49.120;-0.200;2023-10-19T00:50:24;25.40;;;4.25;;
35909;SDS011;22004;49.120;-0.200;2023-10-19T00:52:52;27.88;;;3.92;;
35909;SDS011;22004;49.120;-0.200;2023-10-19T00:55:17;27.48;;;4.72;;
35909;SDS011;22004;49.120;-0.200;2023-10-19T00:57:46;28.83;;;3.85;;
35909;SDS011;22004;49.120;-0.200;2023-10-19T01:00:14;30.05;;;3.95;;
35909;SDS011;22004;49.120;-0.200;2023-10-19T01:02:57;36.33;;;4.85;;
35909;SDS011;22004;49.120;-0.200;2023-10-19T01:05:25;32.90;;;3.53;;
35909;SDS011;22004;49.120;-0.200;2023-10-19T01:07:57;25.02;;;3.80;;
35909;SDS011;22004;49.120;-0.200;2023-10-19T01:10:26;31.08;;;4.53;;
35909;SDS011;22004;49.120;-0.200;2023-10-19T01:12:53;34.97;;;4.22;;
35909;SDS011;22004;49.120;-0.200;2023-10-19T01:15:19;33.92;;;4.72;;
35909;SDS011;22004;49.120;-0.200;2023-10-19T01:17:55;35.55;;;4.75;;
35909;SDS011;22004;49.120;-0.200;2023-10-19T01:20:23;34.28;;;4.80;;
35909;SDS011;22004;49.120;-0.200;2023-10-19T01:22:58;33.88;;;5.05;;
35909;SDS011;22004;49.120;-0.200;2023-10-19T01:25:45;27.90;;;3.88;;
35909;SDS011;22004;49.120;-0.200;2023-10-19T01:28:27;35.35;;;6.05;;
35909;SDS011;22004;49.120;-0.200;2023-10-19T01:31:20;38.38;;;4.78;;
35909;SDS011;22004;49.120;-0.200;2023-10-19T02:31:04;35.97;;;4.82;;
35909;SDS011;22004;49.120;-0.200;2023-10-19T02:33:40;39.97;;;5.55;;
35909;SDS011;22004;49.120;-0.200;2023-10-19T02:36:06;34.38;;;4.75;;
35909;SDS011;22004;49.120;-0.200;2023-10-19T02:38:37;35.30;;;5.32;;
35909;SDS011;22004;49.120;-0.200;2023-10-19T02:41:04;37.05;;;4.95;;
35909;SDS011;22004;49.120;-0.200;2023-10-19T02:43:29;35.55;;;5.07;;
35909;SDS011;22004;49.120;-0.200;2023-10-19T02:45:57;40.85;;;6.10;;
35909;SDS011;22004;49.120;-0.200;2023-10-19T02:48:24;35.03;;;6.22;;
35909;SDS011;22004;49.120;-0.200;2023-10-19T02:50:49;43.55;;;5.22;;
35909;SDS011;22004;49.120;-0.200;2023-10-19T02:53:15;32.35;;;4.70;;
35909;SDS011;22004;49.120;-0.200;2023-10-19T02:55:43;29.15;;;4.18;;
35909;SDS011;22004;49.120;-0.200;2023-10-19T02:58:09;33.03;;;5.18;;
35909;SDS011;22004;49.120;-0.200;2023-10-19T03:00:36;36.58;;;5.40;;
35909;SDS011;22004;49.120;-0.200;2023-10-19T03:03:02;41.97;;;5.18;;
35909;SDS011;22004;49.120;-0.200;2023-10-19T03:05:30;49.90;;;5.82;;
35909;SDS011;22004;49.120;-0.200;2023-10-19T03:07:56;38.25;;;5.90;;
35909;SDS011;22004;49.120;-0.200;2023-10-19T03:10:21;38.75;;;5.82;;
35909;SDS011;22004;49.120;-0.200;2023-10-19T03:12:59;35.60;;;4.75;;
35909;SDS011;22004;49.120;-0.200;2023-10-19T03:15:25;44.80;;;5.00;;
35909;SDS011;22004;49.120;-0.200;2023-10-19T03:17:52;24.75;;;4.57;;
35909;SDS011;22004;49.120;-0.200;2023-10-19T03:20:17;48.40;;;6.10;;
35909;SDS011;22004;49.120;-0.200;2023-10-19T03:22:47;44.63;;;6.13;;
35909;SDS011;22004;49.120;-0.200;2023-10-19T03:25:13;32.40;;;4.43;;
35909;SDS011;22004;49.120;-0.200;2023-10-19T03:27:57;40.65;;;5.53;;
35909;SDS011;22004;49.120;-0.200;2023-10-19T03:30:30;37.63;;;5.03;;
35909;SDS011;22004;49.120;-0.200;2023-10-19T03:32:56;33.67;;;4.80;;
35909;SDS011;22004;49.120;-0.200;2023-10-19T03:35:24;36.40;;;5.70;;
35909;SDS011;22004;49.120;-0.200;2023-10-19T03:37:49;38.97;;;6.43;;
35909;SDS011;22004;49.120;-0.200;2023-10-19T03:40:16;45.97;;;5.00;;
35909;SDS011;22004;49.120;-0.200;2023-10-19T03:42:50;24.15;;;4.25;;
35909;SDS011;22004;49.120;-0.200;2023-10-19T03:45:19;36.50;;;5.20;;
35909;SDS011;22004;49.120;-0.200;2023-10-19T03:47:47;36.28;;;4.90;;
35909;SDS011;22004;49.120;-0.200;2023-10-19T03:50:14;38.35;;;4.28;;
35909;SDS011;22004;49.120;-0.200;2023-10-19T03:52:45;29.95;;;4.65;;
35909;SDS011;22004;49.120;-0.200;2023-10-19T03:55:10;28.02;;;4.82;;
35909;SDS011;22004;49.120;-0.200;2023-10-19T03:57:44;33.53;;;4.47;;
35909;SDS011;22004;49.120;-0.200;2023-10-19T04:00:15;33.38;;;4.80;;
35909;SDS011;22004;49.120;-0.200;2023-10-19T04:02:44;34.05;;;5.28;;
35909;SDS011;22004;49.120;-0.200;2023-10-19T04:05:10;37.42;;;4.25;;
35909;SDS011;22004;49.120;-0.200;2023-10-19T04:07:39;31.92;;;4.50;;
35909;SDS011;22004;49.120;-0.200;2023-10-19T04:10:06;31.08;;;4.38;;
35909;SDS011;22004;49.120;-0.200;2023-10-19T04:12:32;38.35;;;4.57;;
35909;SDS011;22004;49.120;-0.200;2023-10-19T04:15:00;34.00;;;5.65;;
35909;SDS011;22004;49.120;-0.200;2023-10-19T04:17:41;37.83;;;4.78;;
35909;SDS011;22004;49.120;-0.200;2023-10-19T04:20:08;25.85;;;4.28;;
35909;SDS011;22004;49.120;-0.200;2023-10-19T04:22:55;38.53;;;4.80;;
35909;SDS011;22004;49.120;-0.200;2023-10-19T04:25:30;37.03;;;5.60;;
35909;SDS011;22004;49.120;-0.200;2023-10-19T04:27:56;35.63;;;5.63;;
35909;SDS011;22004;49.120;-0.200;2023-10-19T04:30:22;28.25;;;4.38;;
35909;SDS011;22004;49.120;-0.200;2023-10-19T04:32:47;26.02;;;4.60;;
35909;SDS011;22004;49.120;-0.200;2023-10-19T04:35:17;28.70;;;4.32;;
35909;SDS011;22004;49.120;-0.200;2023-10-19T04:37:50;32.92;;;5.32;;
35909;SDS011;22004;49.120;-0.200;2023-10-19T04:40:16;29.55;;;4.88;;
35909;SDS011;22004;49.120;-0.200;2023-10-19T04:42:42;23.52;;;3.53;;
35909;SDS011;22004;49.120;-0.200;2023-10-19T04:45:07;19.05;;;4.38;;
35909;SDS011;22004;49.120;-0.200;2023-10-19T04:47:34;29.85;;;4.97;;
35909;SDS011;22004;49.120;-0.200;2023-10-19T04:50:04;41.05;;;5.90;;
35909;SDS011;22004;49.120;-0.200;2023-10-19T04:52:30;38.90;;;8.73;;
35909;SDS011;22004;49.120;-0.200;2023-10-19T04:54:57;33.63;;;6.93;;
35909;SDS011;22004;49.120;-0.200;2023-10-19T04:57:22;38.25;;;9.48;;
35909;SDS011;22004;49.120;-0.200;2023-10-19T04:59:48;32.30;;;6.70;;
35909;SDS011;22004;49.120;-0.200;2023-10-19T05:02:13;38.35;;;7.07;;
35909;SDS011;22004;49.120;-0.200;2023-10-19T05:04:39;34.30;;;6.93;;
35909;SDS011;22004;49.120;-0.200;2023-10-19T05:07:05;30.40;;;5.65;;
35909;SDS011;22004;49.120;-0.200;2023-10-19T05:09:31;23.52;;;3.90;;
35909;SDS011;22004;49.120;-0.200;2023-10-19T05:11:57;24.60;;;5.22;;
35909;SDS011;22004;49.120;-0.200;2023-10-19T05:14:22;30.95;;;5.25;;
35909;SDS011;22004;49.120;-0.200;2023-10-19T05:16:48;27.20;;;5.20;;
35909;SDS011;22004;49.120;-0.200;2023-10-19T05:19:14;25.75;;;3.88;;
35909;SDS011;22004;49.120;-0.200;2023-10-19T05:21:39;27.23;;;4.07;;
35909;SDS011;22004;49.120;-0.200;2023-10-19T05:24:05;20.73;;;3.97;;
35909;SDS011;22004;49.120;-0.200;2023-10-19T05:26:33;17.83;;;3.58;;
35909;SDS011;22004;49.120;-0.200;2023-10-19T05:28:58;19.90;;;3.67;;
35909;SDS011;22004;49.120;-0.200;2023-10-19T05:31:24;10.60;;;2.88;;
35909;SDS011;22004;49.120;-0.200;2023-10-19T05:33:49;14.95;;;3.83;;
35909;SDS011;22004;49.120;-0.200;2023-10-19T05:36:15;12.90;;;2.70;;
35909;SDS011;22004;49.120;-0.200;2023-10-19T05:38:41;15.88;;;3.28;;
35909;SDS011;22004;49.120;-0.200;2023-10-19T05:41:07;14.50;;;2.45;;
35909;SDS011;22004;49.120;-0.200;2023-10-19T05:43:33;13.73;;;2.92;;
35909;SDS011;22004;49.120;-0.200;2023-10-19T05:45:59;16.63;;;2.90;;
35909;SDS011;22004;49.120;-0.200;2023-10-19T05:48:25;13.55;;;3.00;;
35909;SDS011;22004;49.120;-0.200;2023-10-19T05:50:50;16.35;;;3.00;;
35909;SDS011;22004;49.120;-0.200;2023-10-19T05:53:16;11.70;;;2.63;;
35909;SDS011;22004;49.120;-0.200;2023-10-19T05:55:43;15.52;;;2.90;;
35909;SDS011;22004;49.120;-0.200;2023-10-19T05:58:09;10.07;;;2.22;;
35909;SDS011;22004;49.120;-0.200;2023-10-19T06:00:35;10.82;;;2.45;;
35909;SDS011;22004;49.120;-0.200;2023-10-19T06:03:00;13.15;;;2.72;;
35909;SDS011;22004;49.120;-0.200;2023-10-19T06:05:26;14.10;;;2.70;;
35909;SDS011;22004;49.120;-0.200;2023-10-19T06:07:51;11.23;;;3.20;;
35909;SDS011;22004;49.120;-0.200;2023-10-19T06:10:18;10.35;;;2.70;;
35909;SDS011;22004;49.120;-0.200;2023-10-19T06:12:46;9.48;;;1.90;;
35909;SDS011;22004;49.120;-0.200;2023-10-19T06:15:13;8.32;;;1.95;;
35909;SDS011;22004;49.120;-0.200;2023-10-19T06:17:40;8.60;;;2.75;;
35909;SDS011;22004;49.120;-0.200;2023-10-19T06:20:07;9.63;;;2.40;;
35909;SDS011;22004;49.120;-0.200;2023-10-19T06:22:36;6.40;;;1.80;;
35909;SDS011;22004;49.120;-0.200;2023-10-19T06:25:02;10.57;;;1.85;;
35909;SDS011;22004;49.120;-0.200;2023-10-19T06:27:31;5.57;;;1.20;;
35909;SDS011;22004;49.120;-0.200;2023-10-19T06:29:57;7.63;;;1.70;;
35909;SDS011;22004;49.120;-0.200;2023-10-19T06:32:22;5.57;;;1.48;;
35909;SDS011;22004;49.120;-0.200;2023-10-19T06:34:47;4.50;;;1.23;;
35909;SDS011;22004;49.120;-0.200;2023-10-19T06:37:13;5.95;;;1.20;;
35909;SDS011;22004;49.120;-0.200;2023-10-19T06:39:38;8.07;;;1.60;;
35909;SDS011;22004;49.120;-0.200;2023-10-19T06:42:06;8.02;;;1.20;;
35909;SDS011;22004;49.120;-0.200;2023-10-19T06:44:35;7.22;;;2.20;;
35909;SDS011;22004;49.120;-0.200;2023-10-19T06:47:01;5.18;;;1.60;;
35909;SDS011;22004;49.120;-0.200;2023-10-19T06:49:26;5.10;;;1.45;;
35909;SDS011;22004;49.120;-0.200;2023-10-19T06:51:54;7.15;;;1.90;;
35909;SDS011;22004;49.120;-0.200;2023-10-19T06:54:19;12.98;;;5.63;;
35909;SDS011;22004;49.120;-0.200;2023-10-19T06:56:44;21.08;;;7.18;;
35909;SDS011;22004;49.120;-0.200;2023-10-19T06:59:10;7.82;;;2.80;;
35909;SDS011;22004;49.120;-0.200;2023-10-19T07:01:36;7.53;;;1.73;;
35909;SDS011;22004;49.120;-0.200;2023-10-19T07:04:01;6.80;;;2.50;;
35909;SDS011;22004;49.120;-0.200;2023-10-19T07:06:27;8.38;;;1.95;;
35909;SDS011;22004;49.120;-0.200;2023-10-19T07:08:53;7.22;;;2.13;;
35909;SDS011;22004;49.120;-0.200;2023-10-19T07:11:18;7.75;;;1.67;;
35909;SDS011;22004;49.120;-0.200;2023-10-19T07:13:43;9.32;;;1.50;;
35909;SDS011;22004;49.120;-0.200;2023-10-19T07:16:11;6.93;;;1.63;;
35909;SDS011;22004;49.120;-0.200;2023-10-19T07:18:36;5.47;;;1.67;;
35909;SDS011;22004;49.120;-0.200;2023-10-19T07:21:02;9.52;;;1.98;;
35909;SDS011;22004;49.120;-0.200;2023-10-19T07:23:28;10.52;;;1.60;;
35909;SDS011;22004;49.120;-0.200;2023-10-19T07:25:54;11.95;;;1.85;;
35909;SDS011;22004;49.120;-0.200;2023-10-19T07:28:21;10.15;;;2.72;;
35909;SDS011;22004;49.120;-0.200;2023-10-19T07:30:47;9.32;;;1.70;;
35909;SDS011;22004;49.120;-0.200;2023-10-19T07:33:14;9.07;;;1.35;;
35909;SDS011;22004;49.120;-0.200;2023-10-19T07:35:43;7.38;;;1.60;;
35909;SDS011;22004;49.120;-0.200;2023-10-19T07:38:11;6.78;;;1.25;;
35909;SDS011;22004;49.120;-0.200;2023-10-19T07:40:38;7.72;;;1.67;;
35909;SDS011;22004;49.120;-0.200;2023-10-19T07:43:04;6.80;;;1.85;;
35909;SDS011;22004;49.120;-0.200;2023-10-19T07:45:30;9.73;;;1.50;;
35909;SDS011;22004;49.120;-0.200;2023-10-19T07:47:56;4.43;;;1.33;;
35909;SDS011;22004;49.120;-0.200;2023-10-19T07:50:23;5.65;;;1.25;;
35909;SDS011;22004;49.120;-0.200;2023-10-19T07:52:52;8.20;;;1.83;;
35909;SDS011;22004;49.120;-0.200;2023-10-19T07:55:19;8.77;;;1.58;;
35909;SDS011;22004;49.120;-0.200;2023-10-19T07:57:51;9.35;;;1.33;;
35909;SDS011;22004;49.120;-0.200;2023-10-19T08:00:17;5.60;;;1.83;;
35909;SDS011;22004;49.120;-0.200;2023-10-19T08:02:44;7.60;;;1.38;;
35909;SDS011;22004;49.120;-0.200;2023-10-19T08:05:13;5.45;;;1.33;;
35909;SDS011;22004;49.120;-0.200;2023-10-19T08:07:40;6.28;;;1.10;;
35909;SDS011;22004;49.120;-0.200;2023-10-19T08:10:08;8.15;;;1.85;;
35909;SDS011;22004;49.120;-0.200;2023-10-19T08:12:35;8.43;;;1.30;;
35909;SDS011;22004;49.120;-0.200;2023-10-19T08:15:02;5.32;;;1.58;;
35909;SDS011;22004;49.120;-0.200;2023-10-19T08:17:28;6.07;;;1.63;;
35909;SDS011;22004;49.120;-0.200;2023-10-19T08:19:54;10.15;;;2.25;;
35909;SDS011;22004;49.120;-0.200;2023-10-19T08:22:20;12.30;;;1.88;;
35909;SDS011;22004;49.120;-0.200;2023-10-19T08:24:46;8.05;;;1.83;;
35909;SDS011;22004;49.120;-0.200;2023-10-19T08:27:11;10.02;;;2.03;;
35909;SDS011;22004;49.120;-0.200;2023-10-19T08:29:38;9.68;;;1.98;;
35909;SDS011;22004;49.120;-0.200;2023-10-19T08:32:03;9.68;;;1.65;;
35909;SDS011;22004;49.120;-0.200;2023-10-19T08:34:29;9.57;;;2.97;;
35909;SDS011;22004;49.120;-0.200;2023-10-19T08:36:58;12.27;;;2.67;;
35909;SDS011;22004;49.120;-0.200;2023-10-19T08:39:24;8.05;;;2.00;;
35909;SDS011;22004;49.120;-0.200;2023-10-19T08:41:49;10.70;;;2.20;;
35909;SDS011;22004;49.120;-0.200;2023-10-19T08:44:18;15.05;;;2.10;;
35909;SDS011;22004;49.120;-0.200;2023-10-19T08:46:44;15.15;;;2.80;;
35909;SDS011;22004;49.120;-0.200;2023-10-19T08:49:13;16.10;;;2.50;;
35909;SDS011;22004;49.120;-0.200;2023-10-19T08:51:40;22.88;;;4.03;;
35909;SDS011;22004;49.120;-0.200;2023-10-19T08:54:09;13.63;;;2.78;;
35909;SDS011;22004;49.120;-0.200;2023-10-19T08:56:36;10.90;;;2.63;;
35909;SDS011;22004;49.120;-0.200;2023-10-19T08:59:02;13.02;;;2.33;;
35909;SDS011;22004;49.120;-0.200;2023-10-19T09:01:28;17.10;;;2.60;;
35909;SDS011;22004;49.120;-0.200;2023-10-19T09:03:57;28.27;;;4.70;;
35909;SDS011;22004;49.120;-0.200;2023-10-19T09:06:23;16.20;;;2.47;;
35909;SDS011;22004;49.120;-0.200;2023-10-19T09:08:48;16.58;;;2.30;;
35909;SDS011;22004;49.120;-0.200;2023-10-19T09:11:14;18.63;;;2.80;;
35909;SDS011;22004;49.120;-0.200;2023-10-19T09:16:22;19.92;;;3.00;;
35909;SDS011;22004;49.120;-0.200;2023-10-19T09:18:48;13.77;;;3.15;;
35909;SDS011;22004;49.120;-0.200;2023-10-19T09:21:18;19.85;;;2.53;;
35909;SDS011;22004;49.120;-0.200;2023-10-19T09:23:51;17.73;;;3.13;;
35909;SDS011;22004;49.120;-0.200;2023-10-19T09:26:21;16.40;;;2.70;;
35909;SDS011;22004;49.120;-0.200;2023-10-19T09:28:47;17.50;;;2.80;;
35909;SDS011;22004;49.120;-0.200;2023-10-19T09:31:14;20.77;;;2.97;;
35909;SDS011;22004;49.120;-0.200;2023-10-19T09:33:41;16.92;;;3.25;;
35909;SDS011;22004;49.120;-0.200;2023-10-19T09:36:11;16.20;;;3.50;;
35909;SDS011;22004;49.120;-0.200;2023-10-19T09:38:49;25.15;;;4.05;;
35909;SDS011;22004;49.120;-0.200;2023-10-19T09:41:19;29.58;;;4.72;;
35909;SDS011;22004;49.120;-0.200;2023-10-19T09:43:47;22.15;;;3.78;;
35909;SDS011;22004;49.120;-0.200;2023-10-19T09:46:20;27.60;;;3.60;;
35909;SDS011;22004;49.120;-0.200;2023-10-19T09:48:46;28.10;;;4.00;;
35909;SDS011;22004;49.120;-0.200;2023-10-19T09:51:13;21.65;;;3.80;;
35909;SDS011;22004;49.120;-0.200;2023-10-19T09:53:41;22.23;;;3.70;;
35909;SDS011;22004;49.120;-0.200;2023-10-19T09:56:10;23.38;;;4.05;;
35909;SDS011;22004;49.120;-0.200;2023-10-19T09:58:59;33.00;;;4.47;;
35909;SDS011;22004;49.120;-0.200;2023-10-19T10:01:27;32.55;;;4.32;;
35909;SDS011;22004;49.120;-0.200;2023-10-19T10:03:52;24.83;;;4.03;;
35909;SDS011;22004;49.120;-0.200;2023-10-19T10:06:57;39.42;;;5.13;;
35909;SDS011;22004;49.120;-0.200;2023-10-19T10:09:19;31.90;;;4.50;;
35909;SDS011;22004;49.120;-0.200;2023-10-19T10:11:48;33.90;;;5.70;;
35909;SDS011;22004;49.120;-0.200;2023-10-19T10:14:24;29.48;;;4.57;;
35909;SDS011;22004;49.120;-0.200;2023-10-19T10:17:03;36.75;;;4.80;;
35909;SDS011;22004;49.120;-0.200;2023-10-19T10:19:34;32.90;;;4.45;;
35909;SDS011;22004;49.120;-0.200;2023-10-19T10:22:10;40.33;;;5.35;;
35909;SDS011;22004;49.120;-0.200;2023-10-19T10:24:46;41.10;;;5.85;;
35909;SDS011;22004;49.120;-0.200;2023-10-19T10:27:11;42.95;;;5.75;;
35909;SDS011;22004;49.120;-0.200;2023-10-19T10:29:55;31.35;;;4.82;;
35909;SDS011;22004;49.120;-0.200;2023-10-19T10:35:10;27.48;;;4.25;;
35909;SDS011;22004;49.120;-0.200;2023-10-19T10:38:01;29.67;;;4.13;;
35909;SDS011;22004;49.120;-0.200;2023-10-19T10:40:30;29.25;;;4.50;;
35909;SDS011;22004;49.120;-0.200;2023-10-19T10:43:06;31.75;;;4.22;;
35909;SDS011;22004;49.120;-0.200;2023-10-19T10:45:31;29.70;;;4.57;;
35909;SDS011;22004;49.120;-0.200;2023-10-19T10:47:57;23.92;;;4.55;;
35909;SDS011;22004;49.120;-0.200;2023-10-19T10:50:25;31.33;;;4.80;;
35909;SDS011;22004;49.120;-0.200;2023-10-19T10:52:50;39.30;;;4.50;;
35909;SDS011;22004;49.120;-0.200;2023-10-19T10:55:21;31.08;;;4.57;;
35909;SDS011;22004;49.120;-0.200;2023-10-19T10:57:49;33.22;;;4.93;;
35909;SDS011;22004;49.120;-0.200;2023-10-19T11:00:14;35.58;;;4.60;;
35909;SDS011;22004;49.120;-0.200;2023-10-19T11:02:40;33.95;;;4.10;;
35909;SDS011;22004;49.120;-0.200;2023-10-19T11:05:15;36.15;;;5.43;;
35909;SDS011;22004;49.120;-0.200;2023-10-19T11:08:02;27.48;;;4.90;;
35909;SDS011;22004;49.120;-0.200;2023-10-19T11:10:30;35.03;;;4.55;;
35909;SDS011;22004;49.120;-0.200;2023-10-19T11:13:03;39.72;;;5.00;;
35909;SDS011;22004;49.120;-0.200;2023-10-19T11:15:32;30.98;;;4.05;;
35909;SDS011;22004;49.120;-0.200;2023-10-19T11:18:07;35.95;;;5.20;;
35909;SDS011;22004;49.120;-0.200;2023-10-19T11:20:32;41.08;;;6.28;;
35909;SDS011;22004;49.120;-0.200;2023-10-19T11:22:58;38.53;;;5.10;;
35909;SDS011;22004;49.120;-0.200;2023-10-19T11:25:27;28.05;;;4.45;;
35909;SDS011;22004;49.120;-0.200;2023-10-19T11:27:57;30.13;;;4.47;;
35909;SDS011;22004;49.120;-0.200;2023-10-19T11:30:25;29.25;;;4.38;;
35909;SDS011;22004;49.120;-0.200;2023-10-19T11:32:56;26.88;;;3.90;;
35909;SDS011;22004;49.120;-0.200;2023-10-19T11:35:23;29.63;;;4.15;;
35909;SDS011;22004;49.120;-0.200;2023-10-19T11:37:51;22.25;;;3.80;;
35909;SDS011;22004;49.120;-0.200;2023-10-19T11:40:20;28.65;;;3.92;;
35909;SDS011;22004;49.120;-0.200;2023-10-19T11:42:47;24.40;;;4.15;;
35909;SDS011;22004;49.120;-0.200;2023-10-19T11:45:13;24.67;;;3.47;;
35909;SDS011;22004;49.120;-0.200;2023-10-19T11:47:38;24.25;;;3.47;;
35909;SDS011;22004;49.120;-0.200;2023-10-19T11:50:04;19.33;;;3.45;;
35909;SDS011;22004;49.120;-0.200;2023-10-19T11:52:30;27.77;;;4.78;;
35909;SDS011;22004;49.120;-0.200;2023-10-19T11:54:56;24.10;;;4.28;;
35909;SDS011;22004;49.120;-0.200;2023-10-19T11:57:21;25.02;;;4.20;;
35909;SDS011;22004;49.120;-0.200;2023-10-19T11:59:48;30.10;;;3.95;;
35909;SDS011;22004;49.120;-0.200;2023-10-19T12:02:18;25.42;;;4.05;;
35909;SDS011;22004;49.120;-0.200;2023-10-19T12:04:43;20.08;;;3.85;;
35909;SDS011;22004;49.120;-0.200;2023-10-19T12:07:10;30.25;;;4.82;;
35909;SDS011;22004;49.120;-0.200;2023-10-19T12:09:36;27.63;;;4.10;;
35909;SDS011;22004;49.120;-0.200;2023-10-19T12:12:01;27.27;;;3.90;;
35909;SDS011;22004;49.120;-0.200;2023-10-19T12:14:30;25.10;;;4.60;;
35909;SDS011;22004;49.120;-0.200;2023-10-19T12:16:57;31.58;;;4.38;;
35909;SDS011;22004;49.120;-0.200;2023-10-19T12:19:25;28.45;;;4.10;;
35909;SDS011;22004;49.120;-0.200;2023-10-19T12:21:53;32.95;;;4.00;;
35909;SDS011;22004;49.120;-0.200;2023-10-19T12:24:18;25.63;;;3.70;;
35909;SDS011;22004;49.120;-0.200;2023-10-19T12:26:45;26.85;;;4.03;;
35909;SDS011;22004;49.120;-0.200;2023-10-19T12:29:11;32.00;;;4.30;;
35909;SDS011;22004;49.120;-0.200;2023-10-19T12:31:39;31.13;;;4.95;;
35909;SDS011;22004;49.120;-0.200;2023-10-19T12:34:05;28.42;;;4.00;;
35909;SDS011;22004;49.120;-0.200;2023-10-19T12:36:31;24.85;;;3.83;;
35909;SDS011;22004;49.120;-0.200;2023-10-19T12:38:57;27.08;;;4.47;;
35909;SDS011;22004;49.120;-0.200;2023-10-19T12:41:22;28.77;;;4.18;;
35909;SDS011;22004;49.120;-0.200;2023-10-19T12:43:49;24.08;;;3.35;;
35909;SDS011;22004;49.120;-0.200;2023-10-19T12:46:20;33.22;;;4.32;;
35909;SDS011;22004;49.120;-0.200;2023-10-19T12:48:49;29.17;;;4.15;;
35909;SDS011;22004;49.120;-0.200;2023-10-19T12:51:14;23.58;;;4.35;;
35909;SDS011;22004;49.120;-0.200;2023-10-19T12:53:42;28.05;;;4.10;;
35909;SDS011;22004;49.120;-0.200;2023-10-19T12:56:10;21.88;;;3.53;;
35909;SDS011;22004;49.120;-0.200;2023-10-19T12:58:35;29.25;;;4.30;;
35909;SDS011;22004;49.120;-0.200;2023-10-19T13:01:02;29.58;;;4.22;;
35909;SDS011;22004;49.120;-0.200;2023-10-19T13:03:30;31.25;;;4.90;;
35909;SDS011;22004;49.120;-0.200;2023-10-19T13:05:57;18.08;;;3.30;;
35909;SDS011;22004;49.120;-0.200;2023-10-19T13:08:23;24.88;;;3.10;;
35909;SDS011;22004;49.120;-0.200;2023-10-19T13:10:52;22.05;;;3.80;;
35909;SDS011;22004;49.120;-0.200;2023-10-19T13:13:17;24.08;;;3.92;;
35909;SDS011;22004;49.120;-0.200;2023-10-19T13:15:44;25.15;;;3.47;;
35909;SDS011;22004;49.120;-0.200;2023-10-19T13:18:11;19.35;;;3.67;;
35909;SDS011;22004;49.120;-0.200;2023-10-19T13:20:50;20.27;;;3.75;;
35909;SDS011;22004;49.120;-0.200;2023-10-19T13:23:18;30.08;;;4.10;;
35909;SDS011;22004;49.120;-0.200;2023-10-19T13:25:53;28.05;;;4.50;;
35909;SDS011;22004;49.120;-0.200;2023-10-19T13:28:19;27.52;;;4.13;;
35909;SDS011;22004;49.120;-0.200;2023-10-19T13:30:46;27.40;;;3.40;;
35909;SDS011;22004;49.120;-0.200;2023-10-19T13:33:15;19.05;;;3.70;;
35909;SDS011;22004;49.120;-0.200;2023-10-19T13:35:42;33.20;;;4.78;;
35909;SDS011;22004;49.120;-0.200;2023-10-19T13:38:09;25.05;;;4.57;;
35909;SDS011;22004;49.120;-0.200;2023-10-19T13:40:36;28.70;;;4.30;;
35909;SDS011;22004;49.120;-0.200;2023-10-19T13:43:03;30.85;;;4.60;;
35909;SDS011;22004;49.120;-0.200;2023-10-19T13:45:32;24.88;;;3.97;;
35909;SDS011;22004;49.120;-0.200;2023-10-19T13:47:59;23.15;;;4.25;;
35909;SDS011;22004;49.120;-0.200;2023-10-19T13:50:25;23.73;;;3.33;;
35909;SDS011;22004;49.120;-0.200;2023-10-19T13:52:51;25.42;;;4.18;;
35909;SDS011;22004;49.120;-0.200;2023-10-19T13:55:19;20.90;;;4.25;;
35909;SDS011;22004;49.120;-0.200;2023-10-19T13:57:46;12.93;;;3.10;;
35909;SDS011;22004;49.120;-0.200;2023-10-19T14:00:12;10.85;;;2.30;;
35909;SDS011;22004;49.120;-0.200;2023-10-19T14:02:49;12.88;;;2.35;;
35909;SDS011;22004;49.120;-0.200;2023-10-19T14:05:17;23.38;;;2.95;;
35909;SDS011;22004;49.120;-0.200;2023-10-19T14:07:49;12.75;;;1.92;;
35909;SDS011;22004;49.120;-0.200;2023-10-19T14:10:15;9.65;;;2.22;;
35909;SDS011;22004;49.120;-0.200;2023-10-19T14:12:41;11.50;;;2.08;;
35909;SDS011;22004;49.120;-0.200;2023-10-19T14:15:16;10.73;;;2.08;;
35909;SDS011;22004;49.120;-0.200;2023-10-19T14:17:46;11.23;;;2.03;;
35909;SDS011;22004;49.120;-0.200;2023-10-19T14:20:13;11.73;;;2.75;;
35909;SDS011;22004;49.120;-0.200;2023-10-19T14:22:44;10.75;;;2.78;;
35909;SDS011;22004;49.120;-0.200;2023-10-19T14:25:11;17.65;;;2.10;;
35909;SDS011;22004;49.120;-0.200;2023-10-19T14:27:41;12.68;;;2.10;;
35909;SDS011;22004;49.120;-0.200;2023-10-19T14:32:45;20.60;;;3.45;;
35909;SDS011;22004;49.120;-0.200;2023-10-19T14:35:15;10.90;;;2.28;;
35909;SDS011;22004;49.120;-0.200;2023-10-19T14:37:48;16.88;;;2.40;;
35909;SDS011;22004;49.120;-0.200;2023-10-19T14:40:16;11.20;;;2.13;;
35909;SDS011;22004;49.120;-0.200;2023-10-19T14:42:45;8.45;;;2.20;;
35909;SDS011;22004;49.120;-0.200;2023-10-19T14:45:11;7.75;;;1.77;;
35909;SDS011;22004;49.120;-0.200;2023-10-19T14:47:39;13.15;;;2.00;;
35909;SDS011;22004;49.120;-0.200;2023-10-19T14:50:13;9.93;;;2.60;;
35909;SDS011;22004;49.120;-0.200;2023-10-19T14:52:42;7.53;;;1.77;;
35909;SDS011;22004;49.120;-0.200;2023-10-19T14:55:09;13.93;;;1.95;;
35909;SDS011;22004;49.120;-0.200;2023-10-19T14:57:35;13.43;;;2.40;;
35909;SDS011;22004;49.120;-0.200;2023-10-19T15:00:02;12.13;;;2.28;;
35909;SDS011;22004;49.120;-0.200;2023-10-19T15:02:46;9.73;;;1.63;;
35909;SDS011;22004;49.120;-0.200;2023-10-19T15:05:12;13.00;;;1.85;;
35909;SDS011;22004;49.120;-0.200;2023-10-19T15:07:44;15.20;;;2.25;;
35909;SDS011;22004;49.120;-0.200;2023-10-19T15:12:45;11.20;;;1.70;;
35909;SDS011;22004;49.120;-0.200;2023-10-19T15:15:11;10.93;;;1.95;;
35909;SDS011;22004;49.120;-0.200;2023-10-19T15:17:37;12.30;;;2.08;;
35909;SDS011;22004;49.120;-0.200;2023-10-19T15:20:06;7.45;;;1.75;;
35909;SDS011;22004;49.120;-0.200;2023-10-19T15:22:34;9.02;;;1.75;;
35909;SDS011;22004;49.120;-0.200;2023-10-19T15:24:59;10.80;;;1.50;;
35909;SDS011;22004;49.120;-0.200;2023-10-19T15:27:25;8.35;;;1.45;;
35909;SDS011;22004;49.120;-0.200;2023-10-19T15:29:50;8.77;;;1.75;;
35909;SDS011;22004;49.120;-0.200;2023-10-19T15:32:15;3.70;;;1.40;;
35909;SDS011;22004;49.120;-0.200;2023-10-19T15:34:41;7.07;;;1.98;;
35909;SDS011;22004;49.120;-0.200;2023-10-19T15:37:07;6.30;;;1.90;;
35909;SDS011;22004;49.120;-0.200;2023-10-19T15:39:33;8.35;;;1.50;;
35909;SDS011;22004;49.120;-0.200;2023-10-19T15:41:59;8.98;;;1.52;;
35909;SDS011;22004;49.120;-0.200;2023-10-19T15:44:25;6.95;;;1.50;;
35909;SDS011;22004;49.120;-0.200;2023-10-19T15:46:50;8.70;;;1.70;;
35909;SDS011;22004;49.120;-0.200;2023-10-19T15:49:17;6.85;;;1.45;;
35909;SDS011;22004;49.120;-0.200;2023-10-19T15:51:44;12.13;;;2.67;;
35909;SDS011;22004;49.120;-0.200;2023-10-19T15:54:10;7.25;;;1.63;;
35909;SDS011;22004;49.120;-0.200;2023-10-19T15:56:36;8.38;;;1.42;;
35909;SDS011;22004;49.120;-0.200;2023-10-19T15:59:01;9.35;;;1.90;;
35909;SDS011;22004;49.120;-0.200;2023-10-19T16:01:26;11.27;;;1.55;;
35909;SDS011;22004;49.120;-0.200;2023-10-19T16:03:54;7.45;;;1.27;;
35909;SDS011;22004;49.120;-0.200;2023-10-19T16:06:19;5.10;;;1.45;;
35909;SDS011;22004;49.120;-0.200;2023-10-19T16:08:45;9.73;;;1.83;;
35909;SDS011;22004;49.120;-0.200;2023-10-19T16:11:10;9.07;;;2.67;;
35909;SDS011;22004;49.120;-0.200;2023-10-19T16:13:36;7.68;;;1.75;;
35909;SDS011;22004;49.120;-0.200;2023-10-19T16:16:02;6.55;;;1.73;;
35909;SDS011;22004;49.120;-0.200;2023-10-19T16:18:28;11.50;;;2.40;;
35909;SDS011;22004;49.120;-0.200;2023-10-19T16:20:53;11.63;;;2.40;;